• Join FlightAware (Why Join?)
  • Login
  • US Flag 
06:00AM EDT


 

Airport Tracker/Info


-or-


 

Live Flight TrackerFlight Track Log ✈ EJA831 ✈ 23-Apr-2013 ✈ KEQY - KACY

Flight Track Log - Related Links

Times and Time Zones

All times are in EDT time to prevent confusion due to time zone crossing. See the EJA831 flight status page for this flight to view local times or setup timezone preferences in your user account.

Time Position Orientation Groundspeed Altitude Reporting Facility
EDT Latitude Longitude Course Direction KTS MPH feet Rate Location/Type
04:43PM 35.0278 -80.6119 37° Northeast 149 171 1,400  Level Atlanta Center
04:45PM 35.1336 -80.5161 37° Northeast 272 313 7,000 1,980 Climbing Atlanta Center
04:46PM 35.1967 -80.4628 35° Northeast 272 313 7,700 2,280 Climbing Atlanta Center
04:48PM 35.2683 -80.3008 62° Northeast 303 349 13,100 2,820 Climbing Washington Center
04:49PM 35.3103 -80.1914 65° Northeast 334 384 15,300 2,340 Climbing Washington Center
04:50PM 35.3564 -80.0769 64° Northeast 354 407 17,900 2,400 Climbing Washington Center
04:51PM 35.3972 -79.9822 62° Northeast 359 413 20,100 2,400 Climbing Washington Center
04:52PM 35.4431 -79.8700 63° Northeast 359 413 22,700 1,500 Climbing Washington Center
04:53PM 35.4869 -79.7550 65° Northeast 359 413 23,200 1,500 Climbing Washington Center
04:54PM 35.5347 -79.6375 63° Northeast 365 420 25,700 2,520 Climbing Washington Center
04:55PM 35.5872 -79.5025 64° Northeast 385 443 28,300 1,920 Climbing Washington Center
04:56PM 35.6303 -79.3972 63° Northeast 385 443 29,600 840 Climbing Washington Center
04:57PM 35.6822 -79.2717 63° Northeast 392 451 30,000 180 Climbing Washington Center
04:58PM 35.7319 -79.1436 64° Northeast 398 458 30,000  Level Washington Center
04:59PM 35.7836 -79.0153 64° Northeast 404 465 30,000  Level Washington Center
05:00PM 35.8331 -78.8894 64° Northeast 404 465 30,000  Level Washington Center
05:01PM 35.8764 -78.7553 68° East 404 465 30,000  Level Washington Center
05:02PM 35.8953 -78.5944 82° East 411 473 30,000  Level Washington Center
05:03PM 35.9094 -78.4411 83° East 435 501 30,000  Level Washington Center
05:04PM 35.9256 -78.2828 83° East 454 522 30,000  Level Washington Center
05:05PM 35.9394 -78.1217 84° East 468 539 30,000 -420 Level Washington Center
05:06PM 35.9553 -77.9681 83° East 463 533 29,200 -540 Descending Washington Center
05:07PM 35.9686 -77.8144 84° East 458 527 29,000 -120 Descending Washington Center
05:08PM 36.0047 -77.6642 73° East 453 521 29,000  Level Washington Center
05:09PM 36.0753 -77.5503 53° Northeast 424 488 29,000  Level Washington Center
05:10PM 36.1461 -77.4311 54° Northeast 419 482 29,000  Level Washington Center
05:11PM 36.2167 -77.3194 52° Northeast 414 476 29,000  Level Washington Center
05:12PM 36.2850 -77.2050 53° Northeast 414 476 29,000  Level Washington Center
05:13PM 36.3553 -77.0931 52° Northeast 409 471 29,000  Level Washington Center
05:14PM 36.4214 -76.9806 54° Northeast 404 465 29,000  Level Washington Center
05:15PM 36.4914 -76.8656 53° Northeast 404 465 29,000  Level Washington Center
05:16PM 36.5594 -76.7581 52° Northeast 404 465 29,000  Level Washington Center
05:17PM 36.6272 -76.6453 53° Northeast 399 459 29,000  Level Washington Center
05:18PM 36.6947 -76.5347 53° Northeast 399 459 29,000  Level Washington Center
05:19PM 36.7603 -76.4189 55° Northeast 404 465 29,000  Level Washington Center
05:20PM 36.8278 -76.3081 53° Northeast 404 465 29,000  Level Washington Center
05:21PM 36.8950 -76.2047 51° Northeast 398 458 29,000  Level Washington Center
05:22PM 36.9767 -76.1561 25° Northeast 359 413 29,000  Level Washington Center
05:23PM 37.0811 -76.1047 21° North 354 407 29,000  Level Washington Center
05:24PM 37.1733 -76.0558 23° Northeast 354 407 29,000 -600 Level Washington Center
05:25PM 37.2611 -75.9989 27° Northeast 354 407 27,800 -1,440 Descending Washington Center
05:26PM 37.3489 -75.9419 27° Northeast 354 407 26,200 -1,440 Descending Washington Center
05:27PM 37.4367 -75.8847 27° Northeast 349 402 25,000 -600 Descending Washington Center
05:28PM 37.5306 -75.8222 28° Northeast 355 409 25,000 -360 Level Washington Center
05:29PM 37.6225 -75.7650 26° Northeast 362 417 24,300 -1,080 Descending Washington Center
05:30PM 37.7122 -75.7019 29° Northeast 362 417 22,900 -1,440 Descending Washington Center
05:31PM 37.8039 -75.6392 28° Northeast 367 422 21,500 -1,440 Descending Washington Center
05:32PM 37.8958 -75.5811 26° Northeast 367 422 20,100 -1,260 Descending Washington Center
05:33PM 37.9833 -75.5181 30° Northeast 367 422 19,000 -600 Descending Washington Center
05:34PM 38.0689 -75.4600 28° Northeast 362 417 19,000  Level Washington Center
05:35PM 38.1564 -75.4042 27° Northeast 351 404 19,000  Level Washington Center
05:36PM 38.2458 -75.3458 27° Northeast 346 398 19,000 -540 Level Washington Center
05:37PM 38.3250 -75.2928 28° Northeast 346 398 18,000 -1,500 Descending Washington Center
05:38PM 38.4125 -75.2392 26° Northeast 346 398 16,100 -1,860 Descending Washington Center
05:39PM 38.4978 -75.1831 27° Northeast 346 398 14,300 -1,800 Descending Washington Center
05:40PM 38.5808 -75.1350 24° Northeast 341 392 12,600 -1,680 Descending Washington Center
05:41PM 38.6619 -75.0811 27° Northeast 336 387 11,000 -840 Descending Washington Center
05:42PM 38.7411 -75.0328 25° Northeast 326 375 11,000 -600 Level Washington Center
05:43PM 38.8178 -74.9842 26° Northeast 314 361 9,900 -1,500 Descending Washington Center
05:43PM 38.8719 -74.9436 30° Northeast 303 349 8,500 -1,620 Descending Washington Center
05:44PM 38.8906 -74.9356 19° North 302 348 8,300 -660 Descending Washington Center
05:45PM 38.9550 -74.8922 28° Northeast 278 320 7,700 -960 Descending Washington Center
05:46PM 39.0214 -74.8517 25° Northeast 260 299 6,400 -1,260 Descending Washington Center
05:47PM 39.0858 -74.8108 26° Northeast 260 299 5,200 -1,440 Descending Washington Center
05:47PM 39.1086 -74.7944 29° Northeast 258 297 4,600 -1,200 Descending Washington Center
05:48PM 39.1500 -74.7672 27° Northeast 260 299 4,000 -960 Descending Washington Center
05:49PM 39.1933 -74.6892 54° Northeast 242 278 3,000 -540 Descending Washington Center
05:50PM 39.2261 -74.6136 61° Northeast 237 273 3,000  Level Washington Center
05:51PM 39.2358 -74.5411 80° East 217 250 3,000 -120 Level Washington Center
05:51PM 39.2397 -74.5222 75° East 197 227 2,900  Descending Washington Center
05:52PM 39.2436 -74.4714 84° East 201 231 3,000 120 Climbing Washington Center